Glencove, Washington
Current Conditions -  °F | °C
As of 3:53 PM on Thursday 18 Dec 2014 (Local Time) from KTIW Reporting Station
Moderate Rain Moderate Rain  
Wind Chill: 48°   Ceiling: 4200
Heat Index: 48°   Visibility: 4mi
Dew Point: 45°   Wind: 0mph
Humidity: 89%   Direction: NA
Pressure: 29.79"   Gusts: NA
Location:  47.2986°N, 122.616°W
Report Text: KTIW 182353Z 00000KT 4SM RA BR SCT015 SCT033 BKN042 09/07 A2979 RMK AO2 RAE13B37 SLP090 P0002 60010 T00890072 10089 20072 58016
Loading
Personal Weather Stations






























Interactive Weather Map New forecast layout! Learn more

10-Day Weather Forecast

Advertisements
Track Severe Weather on mobile